Time;durP1;ratioP1;P1;durP2;ratioP2;P2;SDS_P1;SDS_P2;PMS_P1;PMS_P2;Temp;Humidity;BMP_temperature;BMP_pressure;BME280_temperature;BME280_humidity;BME280_pressure;Samples;Min_cycle;Max_cycle;Signal;HPM_P1;HPM_P2
2021/12/27 06:00:36;;;;;;;13.85;5.10;;;;;;;;;;5153618;27;20858;-85
2021/12/27 06:03:02;;;;;;;19.20;5.22;;;;;;;;;;5134493;27;20079;-82
2021/12/27 06:05:27;;;;;;;11.25;4.30;;;;;;;;;;5134442;27;20030;-83
2021/12/27 06:07:53;;;;;;;13.57;4.25;;;;;;;;;;5134226;27;20034;-84
2021/12/27 06:10:19;;;;;;;16.48;4.55;;;;;;;;;;5134590;27;20034;-83
2021/12/27 06:12:45;;;;;;;14.25;4.68;;;;;;;;;;5133912;27;20054;-83
2021/12/27 06:15:12;;;;;;;10.20;4.95;;;;;;;;;;5133760;27;20019;-84
2021/12/27 06:17:38;;;;;;;8.07;4.35;;;;;;;;;;5152699;27;20381;-84
2021/12/27 06:20:06;;;;;;;11.73;5.03;;;;;;;;;;5117738;27;20011;-84
2021/12/27 06:22:32;;;;;;;9.32;4.15;;;;;;;;;;5153459;27;20031;-83
2021/12/27 06:25:03;;;;;;;7.97;4.05;;;;;;;;;;5133603;27;20023;-83
2021/12/27 06:27:29;;;;;;;9.20;4.75;;;;;;;;;;5152394;27;20030;-82
2021/12/27 06:29:55;;;;;;;8.15;3.95;;;;;;;;;;5134048;27;20110;-83
2021/12/27 06:32:20;;;;;;;9.82;4.25;;;;;;;;;;5134064;27;20067;-83
2021/12/27 06:34:46;;;;;;;8.48;4.10;;;;;;;;;;5134148;27;20031;-84
2021/12/27 06:37:12;;;;;;;15.55;4.10;;;;;;;;;;5117936;27;20473;-82
2021/12/27 06:39:37;;;;;;;10.27;3.90;;;;;;;;;;5152415;27;20030;-82
2021/12/27 06:42:05;;;;;;;10.50;4.18;;;;;;;;;;5152448;27;20022;-82
2021/12/27 06:44:31;;;;;;;8.90;3.85;;;;;;;;;;5133794;27;20049;-83
2021/12/27 06:46:59;;;;;;;9.82;3.85;;;;;;;;;;5133086;27;20031;-82
2021/12/27 06:49:26;;;;;;;9.35;3.90;;;;;;;;;;5151493;27;20027;-83
2021/12/27 06:51:51;;;;;;;10.02;4.35;;;;;;;;;;5152175;27;20031;-82
2021/12/27 06:54:17;;;;;;;8.05;4.22;;;;;;;;;;5133093;27;20121;-82
2021/12/27 06:56:42;;;;;;;5.95;3.20;;;;;;;;;;5133019;27;20031;-82
2021/12/27 06:59:07;;;;;;;6.88;3.67;;;;;;;;;;5150962;27;20047;-82
2021/12/27 07:01:33;;;;;;;5.72;3.40;;;;;;;;;;5132923;27;20079;-81
2021/12/27 07:03:58;;;;;;;9.95;4.38;;;;;;;;;;5133433;27;20038;-81
2021/12/27 07:06:23;;;;;;;11.90;3.90;;;;;;;;;;5151605;27;20051;-81
2021/12/27 07:08:49;;;;;;;5.97;3.63;;;;;;;;;;5151328;27;20373;-81
2021/12/27 07:11:14;;;;;;;8.95;3.97;;;;;;;;;;5123093;27;20478;-81
2021/12/27 07:13:40;;;;;;;6.85;3.90;;;;;;;;;;5137804;27;20023;-81
2021/12/27 07:16:05;;;;;;;6.35;3.78;;;;;;;;;;5101865;27;20483;-82
2021/12/27 07:18:31;;;;;;;7.50;3.80;;;;;;;;;;5119271;27;20023;-81
2021/12/27 07:20:56;;;;;;;6.72;3.70;;;;;;;;;;5101850;27;20027;-81
2021/12/27 07:23:22;;;;;;;6.13;3.28;;;;;;;;;;5118983;27;20031;-81
2021/12/27 07:25:48;;;;;;;5.68;3.30;;;;;;;;;;5137154;27;20027;-82
2021/12/27 07:28:13;;;;;;;6.65;3.42;;;;;;;;;;5136868;27;20035;-80
2021/12/27 07:30:39;;;;;;;7.03;3.60;;;;;;;;;;5118592;27;20035;-83
2021/12/27 07:33:04;;;;;;;7.78;3.53;;;;;;;;;;5136894;27;20033;-81
2021/12/27 07:35:30;;;;;;;6.70;3.65;;;;;;;;;;5118581;27;20075;-80
2021/12/27 07:37:55;;;;;;;5.93;3.58;;;;;;;;;;5136957;27;20453;-80
2021/12/27 07:40:21;;;;;;;5.60;3.10;;;;;;;;;;5118456;27;20472;-81
2021/12/27 07:42:46;;;;;;;4.93;3.17;;;;;;;;;;5137081;27;20031;-80
2021/12/27 07:45:11;;;;;;;6.20;3.22;;;;;;;;;;5118743;27;20377;-81
2021/12/27 07:47:37;;;;;;;6.13;3.15;;;;;;;;;;5101391;27;20473;-83
2021/12/27 07:50:04;;;;;;;5.30;3.58;;;;;;;;;;5137088;27;20047;-82
2021/12/27 07:52:30;;;;;;;6.78;3.58;;;;;;;;;;5118845;27;20423;-80
2021/12/27 07:54:55;;;;;;;4.50;3.33;;;;;;;;;;5118275;27;20027;-80
2021/12/27 07:57:21;;;;;;;4.72;3.13;;;;;;;;;;5136426;27;20398;-81
2021/12/27 07:59:47;;;;;;;4.75;3.10;;;;;;;;;;5136351;27;20039;-81
2021/12/27 08:02:14;;;;;;;6.30;2.97;;;;;;;;;;5118390;27;20039;-81
2021/12/27 08:04:40;;;;;;;4.97;3.35;;;;;;;;;;5136377;27;20030;-81
2021/12/27 08:07:05;;;;;;;6.78;3.58;;;;;;;;;;5118008;27;20023;-82
2021/12/27 08:09:31;;;;;;;5.70;3.20;;;;;;;;;;5136417;27;20023;-82
2021/12/27 08:11:56;;;;;;;6.00;3.25;;;;;;;;;;5136333;27;20066;-81
2021/12/27 08:14:22;;;;;;;6.53;3.45;;;;;;;;;;5136099;27;20031;-82
2021/12/27 08:16:47;;;;;;;5.75;3.47;;;;;;;;;;5136010;27;20027;-81
2021/12/27 08:19:13;;;;;;;4.55;3.25;;;;;;;;;;5117623;27;20050;-81
2021/12/27 08:21:38;;;;;;;6.00;3.42;;;;;;;;;;5135535;27;20024;-81
2021/12/27 08:24:05;;;;;;;6.63;3.20;;;;;;;;;;5117336;27;20118;-82
2021/12/27 08:26:31;;;;;;;5.97;3.45;;;;;;;;;;5135950;27;20110;-80
2021/12/27 08:28:57;;;;;;;5.15;3.13;;;;;;;;;;5136092;27;20536;-81
2021/12/27 08:31:23;;;;;;;4.55;3.25;;;;;;;;;;5117944;27;20037;-81
2021/12/27 08:33:48;;;;;;;4.57;3.00;;;;;;;;;;5136052;27;20019;-80
2021/12/27 08:36:14;;;;;;;3.78;2.85;;;;;;;;;;5135815;27;20110;-81
2021/12/27 08:38:39;;;;;;;5.95;3.30;;;;;;;;;;5136224;27;20355;-80
2021/12/27 08:41:05;;;;;;;6.28;3.30;;;;;;;;;;5117692;27;20035;-80
2021/12/27 08:43:31;;;;;;;6.10;3.25;;;;;;;;;;5117616;27;20035;-81
2021/12/27 08:45:57;;;;;;;5.25;3.08;;;;;;;;;;5136030;27;20129;-80
2021/12/27 08:48:22;;;;;;;5.82;3.00;;;;;;;;;;5136685;27;20408;-81
2021/12/27 08:50:48;;;;;;;4.60;3.33;;;;;;;;;;5135647;27;20037;-82
2021/12/27 08:53:14;;;;;;;3.65;2.90;;;;;;;;;;5101163;27;20027;-80
2021/12/27 08:55:39;;;;;;;4.57;3.28;;;;;;;;;;5101016;27;20062;-80
2021/12/27 08:58:05;;;;;;;5.10;3.28;;;;;;;;;;5100510;27;20027;-80
2021/12/27 09:00:30;;;;;;;6.28;3.45;;;;;;;;;;5100752;27;20482;-80
2021/12/27 09:02:57;;;;;;;4.07;2.80;;;;;;;;;;5118478;27;20046;-80
2021/12/27 09:05:23;;;;;;;5.95;3.45;;;;;;;;;;5102094;27;20027;-79
2021/12/27 09:07:48;;;;;;;4.82;3.20;;;;;;;;;;5104810;27;20033;-80
2021/12/27 09:10:14;;;;;;;5.35;3.50;;;;;;;;;;5131058;27;20011;-82
2021/12/27 09:12:40;;;;;;;5.85;4.10;;;;;;;;;;5124515;27;20035;-80
2021/12/27 09:15:07;;;;;;;6.60;4.30;;;;;;;;;;5104165;28;20558;-81
2021/12/27 09:17:32;;;;;;;8.68;5.47;;;;;;;;;;5128734;27;20034;-80
2021/12/27 09:19:57;;;;;;;9.07;4.82;;;;;;;;;;5137070;27;20042;-80
2021/12/27 09:22:23;;;;;;;8.75;4.70;;;;;;;;;;5119687;27;20036;-80
2021/12/27 09:24:50;;;;;;;8.13;5.15;;;;;;;;;;5113896;27;20486;-81
2021/12/27 09:27:15;;;;;;;7.03;4.68;;;;;;;;;;5131062;27;20019;-80
2021/12/27 09:29:42;;;;;;;6.78;4.53;;;;;;;;;;5130058;27;20308;-80
2021/12/27 09:32:07;;;;;;;7.80;4.80;;;;;;;;;;5132287;27;20031;-82
2021/12/27 09:34:33;;;;;;;8.65;4.78;;;;;;;;;;5124550;27;20054;-82
2021/12/27 09:36:58;;;;;;;7.60;4.90;;;;;;;;;;5105287;27;20385;-81
2021/12/27 09:39:24;;;;;;;7.53;4.80;;;;;;;;;;5095121;28;20035;-82
2021/12/27 09:41:49;;;;;;;7.28;4.53;;;;;;;;;;5113861;27;20032;-82
2021/12/27 09:44:14;;;;;;;10.77;5.55;;;;;;;;;;5097429;27;20134;-81
2021/12/27 09:46:40;;;;;;;11.50;5.60;;;;;;;;;;5133159;27;20059;-82
2021/12/27 09:49:09;;;;;;;8.40;5.00;;;;;;;;;;5088912;28;20097;-81
2021/12/27 09:51:37;;;;;;;10.00;4.93;;;;;;;;;;5094919;28;20032;-82
2021/12/27 09:54:03;;;;;;;7.35;4.35;;;;;;;;;;5126918;27;20027;-81
2021/12/27 09:56:29;;;;;;;10.50;5.32;;;;;;;;;;5097685;28;20509;-81
2021/12/27 09:58:54;;;;;;;10.63;5.13;;;;;;;;;;5129974;28;20030;-82
2021/12/27 10:01:20;;;;;;;12.50;5.00;;;;;;;;;;5114692;28;20042;-81
2021/12/27 10:03:49;;;;;;;7.90;4.53;;;;;;;;;;5114263;28;20101;-81
2021/12/27 10:06:16;;;;;;;13.13;4.78;;;;;;;;;;5097339;28;20530;-80
2021/12/27 10:08:46;;;;;;;7.20;4.45;;;;;;;;;;5113821;28;20055;-81
2021/12/27 10:11:19;;;;;;;8.60;4.00;;;;;;;;;;5101449;28;20039;-82
2021/12/27 10:14:10;;;;;;;5.80;4.15;;;;;;;;;;5124066;28;20045;-79
2021/12/27 10:16:52;;;;;;;6.70;4.10;;;;;;;;;;5118056;28;20032;-79
2021/12/27 10:19:19;;;;;;;7.18;4.50;;;;;;;;;;5095792;28;20024;-83
2021/12/27 10:21:46;;;;;;;9.80;4.85;;;;;;;;;;5134231;28;20027;-80
2021/12/27 10:24:17;;;;;;;13.00;5.15;;;;;;;;;;5111884;28;20401;-81
2021/12/27 10:26:44;;;;;;;11.43;5.50;;;;;;;;;;5124448;28;20023;-79
2021/12/27 10:29:11;;;;;;;7.25;4.20;;;;;;;;;;5107075;28;20110;-78
2021/12/27 10:31:54;;;;;;;15.75;5.20;;;;;;;;;;5104311;28;20036;-79
2021/12/27 10:34:22;;;;;;;11.55;4.70;;;;;;;;;;5112765;28;20022;-80
2021/12/27 10:37:15;;;;;;;10.50;4.32;;;;;;;;;;5078392;28;20039;-80
2021/12/27 10:39:43;;;;;;;9.15;3.92;;;;;;;;;;5129571;28;20030;-79
2021/12/27 10:42:09;;;;;;;6.95;4.05;;;;;;;;;;5103456;28;20027;-79
2021/12/27 10:44:36;;;;;;;9.48;4.22;;;;;;;;;;5098994;27;20035;-80
2021/12/27 10:47:01;;;;;;;9.18;4.50;;;;;;;;;;5109395;27;20088;-78
2021/12/27 10:49:46;;;;;;;5.30;4.30;;;;;;;;;;5098463;27;20019;-78
2021/12/27 10:52:12;;;;;;;10.43;4.30;;;;;;;;;;5099245;27;20031;-79
2021/12/27 10:54:38;;;;;;;6.03;4.38;;;;;;;;;;5118265;27;20019;-78
2021/12/27 10:57:03;;;;;;;6.28;4.28;;;;;;;;;;5116541;27;20036;-80
2021/12/27 10:59:29;;;;;;;6.70;3.75;;;;;;;;;;5080650;28;20122;-78
2021/12/27 11:01:55;;;;;;;7.13;4.28;;;;;;;;;;5098034;27;20035;-79
2021/12/27 11:04:21;;;;;;;5.50;4.00;;;;;;;;;;5125470;27;20027;-79
2021/12/27 11:06:48;;;;;;;6.40;4.35;;;;;;;;;;5089731;28;20039;-79
2021/12/27 11:09:17;;;;;;;5.40;3.92;;;;;;;;;;5098410;28;20043;-78
2021/12/27 11:11:43;;;;;;;7.63;4.13;;;;;;;;;;5116250;27;20066;-79
2021/12/27 11:14:08;;;;;;;5.63;4.00;;;;;;;;;;5117609;27;20481;-79
2021/12/27 11:16:34;;;;;;;7.88;4.68;;;;;;;;;;5101424;27;20031;-78
2021/12/27 11:18:59;;;;;;;10.63;3.80;;;;;;;;;;5114560;28;20024;-78
2021/12/27 11:21:32;;;;;;;6.45;3.72;;;;;;;;;;5101584;27;20027;-79
2021/12/27 11:23:59;;;;;;;8.02;4.53;;;;;;;;;;5101794;27;20110;-78
2021/12/27 11:26:27;;;;;;;6.10;3.25;;;;;;;;;;5118829;27;20042;-78
2021/12/27 11:29:18;;;;;;;5.15;3.83;;;;;;;;;;5106331;27;20042;-78
2021/12/27 11:31:46;;;;;;;6.15;3.58;;;;;;;;;;5098697;27;20027;-78
2021/12/27 11:34:14;;;;;;;5.72;3.85;;;;;;;;;;5115122;27;20115;-77
2021/12/27 11:36:42;;;;;;;7.65;3.97;;;;;;;;;;5108218;27;20061;-78
2021/12/27 11:39:27;;;;;;;4.80;3.63;;;;;;;;;;5097225;27;20076;-77
2021/12/27 11:41:57;;;;;;;4.68;3.50;;;;;;;;;;5111667;27;20019;-77
2021/12/27 11:44:36;;;;;;;4.70;3.80;;;;;;;;;;5133460;27;20031;-77
2021/12/27 11:47:02;;;;;;;6.55;4.00;;;;;;;;;;5133685;27;20023;-78
2021/12/27 11:49:50;;;;;;;6.32;3.92;;;;;;;;;;5133737;27;20023;-78
2021/12/27 11:52:19;;;;;;;10.18;3.95;;;;;;;;;;5115823;27;20117;-79
2021/12/27 11:54:55;;;;;;;6.80;4.07;;;;;;;;;;5122530;27;20099;-80
2021/12/27 11:57:41;;;;;;;6.18;3.72;;;;;;;;;;5134776;27;20046;-80
2021/12/27 12:00:21;;;;;;;6.40;4.05;;;;;;;;;;5134014;27;20075;-80
2021/12/27 12:03:09;;;;;;;6.20;3.40;;;;;;;;;;5097044;27;20134;-81
2021/12/27 12:05:36;;;;;;;6.15;3.75;;;;;;;;;;5117162;27;20016;-80
2021/12/27 12:08:03;;;;;;;9.57;3.83;;;;;;;;;;5100160;27;20027;-81
2021/12/27 12:10:30;;;;;;;8.85;3.75;;;;;;;;;;5068408;28;20363;-81
2021/12/27 12:13:17;;;;;;;5.35;3.70;;;;;;;;;;5097239;28;20028;-83
2021/12/27 12:16:01;;;;;;;5.65;3.80;;;;;;;;;;5120581;27;20535;-82
2021/12/27 12:18:27;;;;;;;4.45;3.40;;;;;;;;;;5088476;28;20031;-79
2021/12/27 12:20:53;;;;;;;6.40;2.83;;;;;;;;;;5115041;27;20077;-81
2021/12/27 12:23:19;;;;;;;7.13;3.45;;;;;;;;;;5115543;27;20036;-79
2021/12/27 12:25:44;;;;;;;5.03;3.35;;;;;;;;;;5086125;27;20019;-79
2021/12/27 12:28:15;;;;;;;5.68;4.00;;;;;;;;;;5114832;27;20559;-80
2021/12/27 12:30:41;;;;;;;4.47;3.42;;;;;;;;;;5113867;27;20019;-79
2021/12/27 12:33:19;;;;;;;5.32;3.60;;;;;;;;;;5114368;27;20042;-79
2021/12/27 12:35:50;;;;;;;13.07;3.40;;;;;;;;;;5115147;28;20028;-80
2021/12/27 12:38:23;;;;;;;5.32;3.00;;;;;;;;;;5115176;28;20079;-79
2021/12/27 12:40:59;;;;;;;7.90;3.20;;;;;;;;;;5115419;28;20024;-80
2021/12/27 12:43:36;;;;;;;4.18;3.10;;;;;;;;;;5115409;28;20031;-79
2021/12/27 12:46:38;;;;;;;4.00;2.95;;;;;;;;;;5113680;28;20026;-77
2021/12/27 12:49:05;;;;;;;10.05;2.95;;;;;;;;;;5108531;28;20055;-78
2021/12/27 12:51:43;;;;;;;9.93;3.58;;;;;;;;;;5115012;28;20505;-78
2021/12/27 12:54:30;;;;;;;7.15;2.88;;;;;;;;;;5114958;28;20058;-79
2021/12/27 12:57:05;;;;;;;3.22;2.30;;;;;;;;;;5115034;28;20096;-78
2021/12/27 12:59:42;;;;;;;4.03;2.60;;;;;;;;;;5114660;28;20035;-78
2021/12/27 13:02:13;;;;;;;3.38;2.38;;;;;;;;;;5111102;27;20497;-78
2021/12/27 13:04:42;;;;;;;4.40;2.67;;;;;;;;;;5105479;28;20048;-78
2021/12/27 13:07:09;;;;;;;4.65;2.75;;;;;;;;;;5099889;27;20049;-78
2021/12/27 13:09:48;;;;;;;7.38;2.92;;;;;;;;;;5099089;27;20107;-78
2021/12/27 13:12:22;;;;;;;5.57;2.80;;;;;;;;;;5083076;27;20106;-77
2021/12/27 13:14:49;;;;;;;10.55;3.10;;;;;;;;;;5105152;27;20426;-78
2021/12/27 13:17:22;;;;;;;3.08;2.67;;;;;;;;;;5089366;27;20051;-78
2021/12/27 13:19:58;;;;;;;3.58;2.80;;;;;;;;;;5130202;27;20377;-78
2021/12/27 13:22:37;;;;;;;4.78;2.88;;;;;;;;;;5101606;27;20030;-78
2021/12/27 13:25:03;;;;;;;5.78;2.90;;;;;;;;;;5127149;27;20030;-78
2021/12/27 13:27:29;;;;;;;6.93;2.90;;;;;;;;;;5086084;28;20359;-78
2021/12/27 13:30:10;;;;;;;5.80;3.30;;;;;;;;;;5078527;27;20023;-78
2021/12/27 13:32:36;;;;;;;3.95;3.03;;;;;;;;;;5113752;27;20397;-77
2021/12/27 13:35:03;;;;;;;4.20;2.90;;;;;;;;;;5080164;27;20039;-77
2021/12/27 13:37:28;;;;;;;9.30;2.80;;;;;;;;;;5132690;27;20106;-77
2021/12/27 13:40:09;;;;;;;4.95;2.88;;;;;;;;;;5105882;28;20156;-77
2021/12/27 13:42:34;;;;;;;4.90;2.95;;;;;;;;;;5105840;27;20027;-77
2021/12/27 13:45:11;;;;;;;6.97;2.83;;;;;;;;;;5108814;28;20040;-78
2021/12/27 13:47:36;;;;;;;4.85;2.65;;;;;;;;;;5079265;28;20558;-77
2021/12/27 13:50:02;;;;;;;6.30;3.25;;;;;;;;;;5090003;28;20069;-78
2021/12/27 13:52:28;;;;;;;5.47;2.63;;;;;;;;;;5113178;28;20035;-77
2021/12/27 13:54:54;;;;;;;7.40;2.90;;;;;;;;;;5114414;28;20126;-78
2021/12/27 13:57:34;;;;;;;4.70;2.75;;;;;;;;;;5118333;28;20015;-77
2021/12/27 14:00:00;;;;;;;7.15;2.90;;;;;;;;;;5094976;27;20052;-78
2021/12/27 14:02:39;;;;;;;2.58;2.38;;;;;;;;;;5129556;27;20504;-78
2021/12/27 14:05:07;;;;;;;3.53;2.80;;;;;;;;;;5132614;28;20089;-79
2021/12/27 14:07:32;;;;;;;3.75;2.80;;;;;;;;;;5132630;28;20036;-79
2021/12/27 14:09:57;;;;;;;7.13;2.85;;;;;;;;;;5128278;28;20019;-78
2021/12/27 14:12:25;;;;;;;4.65;2.70;;;;;;;;;;5113502;28;20049;-79
2021/12/27 14:14:51;;;;;;;5.03;2.97;;;;;;;;;;5131689;28;20027;-80
2021/12/27 14:17:23;;;;;;;3.53;2.75;;;;;;;;;;5096756;28;20041;-78
2021/12/27 14:20:00;;;;;;;3.40;2.42;;;;;;;;;;5102546;28;20027;-79
2021/12/27 14:22:36;;;;;;;5.22;3.30;;;;;;;;;;5130389;27;20126;-80
2021/12/27 14:25:02;;;;;;;3.75;2.72;;;;;;;;;;5117736;27;20520;-78
2021/12/27 14:27:34;;;;;;;4.25;2.60;;;;;;;;;;5118242;27;20033;-79
2021/12/27 14:30:13;;;;;;;3.55;2.60;;;;;;;;;;5117988;27;20119;-79
2021/12/27 14:32:50;;;;;;;6.20;2.45;;;;;;;;;;5135791;27;20031;-78
2021/12/27 14:35:27;;;;;;;4.78;2.50;;;;;;;;;;5135406;27;20023;-78
2021/12/27 14:37:55;;;;;;;7.82;2.53;;;;;;;;;;5101775;27;20072;-78
2021/12/27 14:40:24;;;;;;;5.60;2.70;;;;;;;;;;5089337;27;20428;-80
2021/12/27 14:42:51;;;;;;;4.10;2.55;;;;;;;;;;5108075;27;20026;-79
2021/12/27 14:45:18;;;;;;;5.90;2.55;;;;;;;;;;5106200;27;20114;-79
2021/12/27 14:47:43;;;;;;;3.53;2.30;;;;;;;;;;5136235;27;20027;-79
2021/12/27 14:50:10;;;;;;;2.90;2.40;;;;;;;;;;5127024;27;20031;-79
2021/12/27 14:52:36;;;;;;;3.75;2.70;;;;;;;;;;5130981;27;20039;-79
2021/12/27 14:55:04;;;;;;;4.57;2.70;;;;;;;;;;5110837;28;20093;-78
2021/12/27 14:57:29;;;;;;;5.65;2.75;;;;;;;;;;5109497;27;20109;-78
2021/12/27 14:59:55;;;;;;;4.35;3.13;;;;;;;;;;5117019;27;20107;-80
2021/12/27 15:02:20;;;;;;;4.85;2.92;;;;;;;;;;5138449;27;20027;-78
2021/12/27 15:04:45;;;;;;;6.78;3.08;;;;;;;;;;5138691;27;20031;-78
2021/12/27 15:07:11;;;;;;;4.00;3.42;;;;;;;;;;5138293;27;20030;-77
2021/12/27 15:09:36;;;;;;;3.63;3.28;;;;;;;;;;5138101;27;20481;-78
2021/12/27 15:12:02;;;;;;;6.97;3.40;;;;;;;;;;5102935;28;20118;-78
2021/12/27 15:14:27;;;;;;;3.72;3.40;;;;;;;;;;5116994;28;20030;-77
2021/12/27 15:16:53;;;;;;;5.60;3.28;;;;;;;;;;5081476;28;20076;-78
2021/12/27 15:19:18;;;;;;;3.90;3.10;;;;;;;;;;5098604;28;20084;-78
2021/12/27 15:21:44;;;;;;;3.38;2.83;;;;;;;;;;5116783;28;20028;-78
2021/12/27 15:24:09;;;;;;;4.22;3.50;;;;;;;;;;5098280;28;20024;-78
2021/12/27 15:26:35;;;;;;;4.55;3.15;;;;;;;;;;5098182;28;20038;-78
2021/12/27 15:29:02;;;;;;;5.68;3.03;;;;;;;;;;5098295;28;20057;-77
2021/12/27 15:31:27;;;;;;;3.63;2.80;;;;;;;;;;5115877;28;20084;-77
2021/12/27 15:33:54;;;;;;;4.40;3.05;;;;;;;;;;5098379;28;20027;-77
2021/12/27 15:36:19;;;;;;;7.40;3.70;;;;;;;;;;5097992;28;20034;-76
2021/12/27 15:38:47;;;;;;;4.43;3.28;;;;;;;;;;5098109;28;20024;-77
2021/12/27 15:41:12;;;;;;;4.13;3.03;;;;;;;;;;5100272;28;20035;-76
2021/12/27 15:43:38;;;;;;;5.15;3.20;;;;;;;;;;5097906;28;20031;-76
2021/12/27 15:46:04;;;;;;;4.43;3.08;;;;;;;;;;5097777;28;20501;-76
2021/12/27 15:48:30;;;;;;;3.17;2.85;;;;;;;;;;5097637;28;20019;-76
2021/12/27 15:50:56;;;;;;;3.85;2.80;;;;;;;;;;5098159;28;20027;-76
2021/12/27 15:53:25;;;;;;;3.45;3.13;;;;;;;;;;5097944;28;20031;-77
2021/12/27 15:55:51;;;;;;;2.90;2.60;;;;;;;;;;5097916;28;20102;-75
2021/12/27 15:58:17;;;;;;;3.38;2.67;;;;;;;;;;5097538;28;20179;-76
2021/12/27 16:00:42;;;;;;;4.70;3.08;;;;;;;;;;5093979;28;20040;-76
2021/12/27 16:03:08;;;;;;;3.70;3.30;;;;;;;;;;5094213;28;20062;-76
2021/12/27 16:05:33;;;;;;;3.47;2.72;;;;;;;;;;5094175;28;20042;-78
2021/12/27 16:07:59;;;;;;;3.60;2.53;;;;;;;;;;5095289;28;20032;-77
2021/12/27 16:10:27;;;;;;;3.80;2.60;;;;;;;;;;5095023;28;20020;-76
2021/12/27 16:12:53;;;;;;;4.30;3.58;;;;;;;;;;5095439;28;20394;-76
2021/12/27 16:15:21;;;;;;;3.78;3.30;;;;;;;;;;5095360;28;20383;-76
2021/12/27 16:17:46;;;;;;;4.70;3.30;;;;;;;;;;5093895;28;20043;-77
2021/12/27 16:20:12;;;;;;;4.32;3.30;;;;;;;;;;5076948;28;20505;-77
2021/12/27 16:22:39;;;;;;;3.80;2.90;;;;;;;;;;5093809;28;20055;-76
2021/12/27 16:25:07;;;;;;;4.88;3.08;;;;;;;;;;5076909;28;20032;-76
2021/12/27 16:27:33;;;;;;;4.03;2.78;;;;;;;;;;5076827;28;20039;-78
2021/12/27 16:29:58;;;;;;;3.00;2.70;;;;;;;;;;5093447;28;20032;-78
2021/12/27 16:32:24;;;;;;;4.40;3.65;;;;;;;;;;5077072;28;20487;-77
2021/12/27 16:34:49;;;;;;;3.50;3.15;;;;;;;;;;5095072;28;20440;-76
2021/12/27 16:37:16;;;;;;;3.63;3.03;;;;;;;;;;5093832;28;20359;-78
2021/12/27 16:39:42;;;;;;;4.47;2.70;;;;;;;;;;5093502;28;20039;-78
2021/12/27 16:42:10;;;;;;;3.78;2.92;;;;;;;;;;5093363;28;20024;-79
2021/12/27 16:44:36;;;;;;;3.28;2.63;;;;;;;;;;5059586;28;20035;-77
2021/12/27 16:47:02;;;;;;;3.88;3.05;;;;;;;;;;5093284;28;20039;-75
2021/12/27 16:49:27;;;;;;;5.45;2.95;;;;;;;;;;5076282;28;20024;-77
2021/12/27 16:51:52;;;;;;;4.88;3.30;;;;;;;;;;5093594;28;20150;-77
2021/12/27 16:54:19;;;;;;;3.92;3.08;;;;;;;;;;5093203;28;20458;-77
2021/12/27 16:56:45;;;;;;;4.22;3.30;;;;;;;;;;5093196;28;20073;-77
2021/12/27 16:59:11;;;;;;;4.60;3.47;;;;;;;;;;5094612;28;20071;-76
2021/12/27 17:01:37;;;;;;;3.08;2.70;;;;;;;;;;5096392;28;20088;-78
2021/12/27 17:04:02;;;;;;;5.22;3.38;;;;;;;;;;5079675;28;20564;-78
2021/12/27 17:06:27;;;;;;;4.43;2.92;;;;;;;;;;5096562;28;20122;-76
2021/12/27 17:08:54;;;;;;;4.78;3.55;;;;;;;;;;5114611;28;20020;-77
2021/12/27 17:11:19;;;;;;;4.97;3.22;;;;;;;;;;5096258;28;20051;-77
2021/12/27 17:13:45;;;;;;;4.57;3.45;;;;;;;;;;5096515;28;20411;-77
2021/12/27 17:16:15;;;;;;;4.57;3.33;;;;;;;;;;5096234;28;20110;-77
2021/12/27 17:18:43;;;;;;;4.63;3.58;;;;;;;;;;5103141;28;20474;-78
2021/12/27 17:21:08;;;;;;;3.50;3.20;;;;;;;;;;5083054;28;20053;-76
2021/12/27 17:23:34;;;;;;;4.15;3.33;;;;;;;;;;5115495;28;20478;-78
2021/12/27 17:25:59;;;;;;;3.53;2.80;;;;;;;;;;5095976;28;20524;-77
2021/12/27 17:28:24;;;;;;;3.28;2.90;;;;;;;;;;5115101;28;20043;-76
2021/12/27 17:30:51;;;;;;;5.13;3.40;;;;;;;;;;5095819;28;20020;-76
2021/12/27 17:33:18;;;;;;;4.75;3.20;;;;;;;;;;5096237;28;20080;-77
2021/12/27 17:35:44;;;;;;;4.55;2.70;;;;;;;;;;5113978;28;20034;-76
2021/12/27 17:38:09;;;;;;;4.50;2.88;;;;;;;;;;5114527;28;20466;-76
2021/12/27 17:40:35;;;;;;;5.63;3.25;;;;;;;;;;5078827;28;20024;-77
2021/12/27 17:43:00;;;;;;;5.07;3.63;;;;;;;;;;5081205;28;20024;-76
2021/12/27 17:45:27;;;;;;;3.55;2.72;;;;;;;;;;5116716;28;20031;-76
2021/12/27 17:47:53;;;;;;;4.20;3.22;;;;;;;;;;5096042;28;20038;-77
2021/12/27 17:50:22;;;;;;;3.45;3.10;;;;;;;;;;5095565;28;20015;-77
2021/12/27 17:52:48;;;;;;;4.10;2.80;;;;;;;;;;5114059;28;20063;-78
2021/12/27 17:55:14;;;;;;;2.90;2.60;;;;;;;;;;5095705;28;20104;-78
2021/12/27 17:57:39;;;;;;;5.03;2.80;;;;;;;;;;5095766;28;20164;-76
2021/12/27 18:00:07;;;;;;;3.65;2.83;;;;;;;;;;5095375;28;20067;-76
2021/12/27 18:02:33;;;;;;;4.05;3.05;;;;;;;;;;5078771;28;20034;-83
2021/12/27 18:04:59;;;;;;;5.07;3.35;;;;;;;;;;5079419;28;20028;-82
2021/12/27 18:07:24;;;;;;;5.97;4.13;;;;;;;;;;5114779;27;20031;-85
2021/12/27 18:09:50;;;;;;;9.70;5.05;;;;;;;;;;5135334;27;20470;-82
2021/12/27 18:12:19;;;;;;;8.38;5.25;;;;;;;;;;5119037;27;20034;-82
2021/12/27 18:14:45;;;;;;;7.13;5.32;;;;;;;;;;5155336;27;20023;-81
2021/12/27 18:17:11;;;;;;;8.25;5.15;;;;;;;;;;5137616;27;20075;-83
2021/12/27 18:19:36;;;;;;;5.75;4.75;;;;;;;;;;5120816;27;20042;-83
2021/12/27 18:22:02;;;;;;;9.27;4.55;;;;;;;;;;5110385;28;20520;-81
2021/12/27 18:24:27;;;;;;;6.57;4.70;;;;;;;;;;5122211;27;20042;-81
2021/12/27 18:26:53;;;;;;;7.50;4.78;;;;;;;;;;5130154;27;20428;-80
2021/12/27 18:29:18;;;;;;;11.90;5.30;;;;;;;;;;5101541;28;20050;-80
2021/12/27 18:31:44;;;;;;;8.77;5.30;;;;;;;;;;5104072;28;20040;-81
2021/12/27 18:34:10;;;;;;;10.38;5.22;;;;;;;;;;5096255;28;20409;-80
2021/12/27 18:36:37;;;;;;;6.07;4.63;;;;;;;;;;5104414;28;20066;-80
2021/12/27 18:39:03;;;;;;;10.07;4.43;;;;;;;;;;5115184;28;20056;-78
2021/12/27 18:41:29;;;;;;;10.88;4.75;;;;;;;;;;5115611;28;20105;-78
2021/12/27 18:43:58;;;;;;;13.20;4.63;;;;;;;;;;5134131;28;20106;-77
2021/12/27 18:46:24;;;;;;;5.85;4.10;;;;;;;;;;5098928;28;20424;-77
2021/12/27 18:48:50;;;;;;;5.47;4.57;;;;;;;;;;5115804;28;20477;-77
2021/12/27 18:51:15;;;;;;;8.77;4.97;;;;;;;;;;5115550;28;20037;-77
2021/12/27 18:53:41;;;;;;;10.88;5.82;;;;;;;;;;5115735;28;20098;-77
2021/12/27 18:56:11;;;;;;;7.40;4.60;;;;;;;;;;5133642;28;20031;-77
2021/12/27 18:58:42;;;;;;;9.43;4.38;;;;;;;;;;5100056;28;20477;-77
2021/12/27 19:01:09;;;;;;;6.85;5.60;;;;;;;;;;5094859;28;20054;-77
2021/12/27 19:03:34;;;;;;;6.03;4.50;;;;;;;;;;5095355;28;20462;-77
2021/12/27 19:06:01;;;;;;;10.35;4.53;;;;;;;;;;5094915;28;20043;-77
2021/12/27 19:08:27;;;;;;;5.10;4.47;;;;;;;;;;5116721;28;20028;-76
2021/12/27 19:10:52;;;;;;;5.53;4.50;;;;;;;;;;5116891;28;20519;-76
2021/12/27 19:13:18;;;;;;;6.47;4.75;;;;;;;;;;5116705;28;20027;-77
2021/12/27 19:15:44;;;;;;;6.78;4.30;;;;;;;;;;5116895;28;20027;-77
2021/12/27 19:18:09;;;;;;;6.65;4.80;;;;;;;;;;5115433;28;20024;-77
2021/12/27 19:20:36;;;;;;;7.47;5.90;;;;;;;;;;5117111;28;20095;-77
2021/12/27 19:23:02;;;;;;;13.25;7.35;;;;;;;;;;5082618;28;20550;-77
2021/12/27 19:25:27;;;;;;;37.45;21.08;;;;;;;;;;5115262;28;20114;-77
2021/12/27 19:27:53;;;;;;;37.85;23.63;;;;;;;;;;5098262;28;20084;-77
2021/12/27 19:30:19;;;;;;;32.33;21.63;;;;;;;;;;5116766;28;20034;-77
2021/12/27 19:32:45;;;;;;;10.82;8.20;;;;;;;;;;5115719;28;20125;-77
2021/12/27 19:35:15;;;;;;;13.93;7.22;;;;;;;;;;5115046;28;20482;-77
2021/12/27 19:37:41;;;;;;;13.60;9.32;;;;;;;;;;5115645;28;20035;-77
2021/12/27 19:40:07;;;;;;;8.07;6.50;;;;;;;;;;5114900;28;20045;-77
2021/12/27 19:42:32;;;;;;;8.65;6.85;;;;;;;;;;5081219;28;20034;-78
2021/12/27 19:44:58;;;;;;;8.77;6.72;;;;;;;;;;5115198;28;20035;-77
2021/12/27 19:47:23;;;;;;;8.23;6.03;;;;;;;;;;5114890;28;20028;-77
2021/12/27 19:49:48;;;;;;;10.30;6.82;;;;;;;;;;5116102;28;20114;-76
2021/12/27 19:52:14;;;;;;;9.48;7.13;;;;;;;;;;5116009;28;20394;-76
2021/12/27 19:54:39;;;;;;;10.70;6.22;;;;;;;;;;5116215;28;20024;-81
